createdAt,value
2023-05-19T00:01:19.759Z,13.78
2023-05-19T00:03:52.755Z,13.73
2023-05-19T00:06:46.826Z,13.70
2023-05-19T00:09:14.035Z,13.67
2023-05-19T00:11:41.376Z,13.68
2023-05-19T00:14:09.846Z,13.68
2023-05-19T00:16:38.078Z,13.67
2023-05-19T00:19:06.501Z,13.65
2023-05-19T00:21:33.733Z,13.64
2023-05-19T00:24:00.844Z,13.65
2023-05-19T00:26:28.037Z,13.65
2023-05-19T00:29:00.189Z,13.65
2023-05-19T00:31:27.553Z,13.65
2023-05-19T00:33:55.672Z,13.62
2023-05-19T00:36:22.739Z,13.62
2023-05-19T00:38:51.198Z,13.62
2023-05-19T00:41:18.636Z,13.59
2023-05-19T00:43:45.880Z,13.57
2023-05-19T00:46:13.155Z,13.57
2023-05-19T00:48:40.243Z,13.59
2023-05-19T00:51:07.373Z,13.58
2023-05-19T00:53:34.551Z,13.59
2023-05-19T00:56:02.364Z,13.57
2023-05-19T00:58:30.538Z,13.53
2023-05-19T01:01:03.446Z,13.53
2023-05-19T01:03:31.978Z,13.52
2023-05-19T01:06:01.832Z,13.51
2023-05-19T01:08:29.464Z,13.53
2023-05-19T01:10:56.705Z,13.52
2023-05-19T01:13:23.881Z,13.49
2023-05-19T01:16:00.224Z,13.51
2023-05-19T01:18:36.873Z,13.49
2023-05-19T01:21:16.203Z,13.47
2023-05-19T01:23:49.949Z,13.45
2023-05-19T01:26:26.418Z,13.44
2023-05-19T01:28:56.160Z,13.42
2023-05-19T01:31:24.001Z,13.42
2023-05-19T01:33:53.043Z,13.45
2023-05-19T01:36:21.217Z,13.44
2023-05-19T01:38:52.479Z,13.44
2023-05-19T01:41:21.959Z,13.41
2023-05-19T01:43:49.202Z,13.45
2023-05-19T01:46:16.385Z,13.46
2023-05-19T01:48:43.862Z,13.41
2023-05-19T01:51:11.146Z,13.40
2023-05-19T01:53:38.327Z,13.41
2023-05-19T01:56:05.881Z,13.45
2023-05-19T01:58:45.709Z,13.45
2023-05-19T02:01:21.862Z,13.45
2023-05-19T02:04:04.180Z,13.46
2023-05-19T02:06:31.804Z,13.44
2023-05-19T02:09:12.208Z,13.46
2023-05-19T02:11:46.109Z,13.49
2023-05-19T02:14:20.069Z,13.52
2023-05-19T02:16:48.410Z,13.53
2023-05-19T02:19:26.249Z,13.59
2023-05-19T02:21:56.386Z,13.61
2023-05-19T02:24:23.582Z,13.64
2023-05-19T02:26:52.074Z,13.65
2023-05-19T02:29:22.480Z,13.70
2023-05-19T02:31:51.038Z,13.72
2023-05-19T02:34:19.540Z,13.75
2023-05-19T02:36:49.792Z,13.77
2023-05-19T02:39:16.919Z,13.79
2023-05-19T02:41:43.921Z,13.81
2023-05-19T02:44:11.108Z,13.82
2023-05-19T02:46:41.287Z,13.85
2023-05-19T02:49:08.418Z,13.91
2023-05-19T02:51:35.432Z,13.93
2023-05-19T02:54:02.399Z,13.97
2023-05-19T02:56:29.580Z,14.04
2023-05-19T02:58:56.827Z,14.11
2023-05-19T03:01:23.997Z,14.15
2023-05-19T03:03:51.144Z,14.20
2023-05-19T03:06:18.388Z,14.26
2023-05-19T03:08:45.479Z,14.33
2023-05-19T03:11:12.615Z,14.39
2023-05-19T03:13:39.812Z,14.45
2023-05-19T03:16:08.439Z,14.50
2023-05-19T03:18:36.268Z,14.56
2023-05-19T03:21:03.842Z,14.60
2023-05-19T03:23:31.048Z,14.65
2023-05-19T03:25:58.270Z,14.67
2023-05-19T03:28:27.451Z,14.71
2023-05-19T03:30:54.643Z,14.73
2023-05-19T03:33:25.757Z,14.77
2023-05-19T03:35:53.124Z,14.77
2023-05-19T03:38:20.738Z,14.78
2023-05-19T03:40:53.886Z,14.76
2023-05-19T03:43:20.977Z,14.76
2023-05-19T03:45:53.952Z,14.79
2023-05-19T03:48:39.816Z,14.78
2023-05-19T03:51:28.758Z,14.79
2023-05-19T03:54:00.726Z,14.78
2023-05-19T03:56:28.741Z,14.79
2023-05-19T03:58:55.992Z,14.78
2023-05-19T04:01:23.254Z,14.78
2023-05-19T04:03:50.369Z,14.74
2023-05-19T04:06:19.230Z,14.73
2023-05-19T04:08:46.284Z,14.72
2023-05-19T04:11:13.461Z,14.71
2023-05-19T04:13:40.629Z,14.70
2023-05-19T04:16:07.882Z,14.70
2023-05-19T04:18:35.178Z,14.71
2023-05-19T04:21:02.228Z,14.71
2023-05-19T04:23:29.215Z,14.71
2023-05-19T04:25:58.268Z,14.71
2023-05-19T04:28:25.498Z,14.69
2023-05-19T04:30:52.616Z,14.65
2023-05-19T04:33:20.296Z,14.63
2023-05-19T04:35:47.810Z,14.61
2023-05-19T04:38:18.970Z,14.57
2023-05-19T04:40:50.418Z,14.58
2023-05-19T04:43:19.418Z,14.57
2023-05-19T04:45:47.397Z,14.54
2023-05-19T04:48:15.404Z,14.52
2023-05-19T04:50:42.597Z,14.53
2023-05-19T04:53:11.639Z,14.53
2023-05-19T04:55:39.378Z,14.52
2023-05-19T04:58:07.266Z,14.53
2023-05-19T05:00:35.908Z,14.49
2023-05-19T05:03:07.300Z,14.44
2023-05-19T05:05:35.097Z,14.41
2023-05-19T05:08:03.278Z,14.40
2023-05-19T05:10:35.921Z,14.39
2023-05-19T05:13:03.279Z,14.36
2023-05-19T05:15:30.847Z,14.32
2023-05-19T05:18:01.347Z,14.26
2023-05-19T05:20:29.051Z,14.22
2023-05-19T05:22:58.057Z,14.20
2023-05-19T05:25:26.560Z,14.07
2023-05-19T05:27:53.809Z,13.97
2023-05-19T05:30:21.002Z,13.91
2023-05-19T05:32:48.220Z,13.84
2023-05-19T05:35:29.695Z,13.78
2023-05-19T05:37:56.880Z,13.74
2023-05-19T05:40:24.127Z,13.66
2023-05-19T05:42:52.181Z,13.60
2023-05-19T05:45:25.919Z,13.57
2023-05-19T05:47:54.435Z,13.54
2023-05-19T05:50:21.883Z,13.51
2023-05-19T05:52:49.718Z,13.47
2023-05-19T05:55:18.600Z,13.39
2023-05-19T05:57:48.789Z,13.39
2023-05-19T06:00:16.515Z,13.38
2023-05-19T06:02:50.623Z,13.32
2023-05-19T06:05:19.543Z,13.32
2023-05-19T06:07:48.119Z,13.31
2023-05-19T06:10:20.641Z,13.25
2023-05-19T06:12:48.871Z,13.25
2023-05-19T06:15:16.410Z,13.22
2023-05-19T06:17:50.574Z,13.21
2023-05-19T06:20:18.692Z,13.18
2023-05-19T06:22:45.975Z,13.18
2023-05-19T06:25:14.844Z,13.20
2023-05-19T06:27:42.683Z,13.24
2023-05-19T06:30:09.999Z,13.28
2023-05-19T06:32:47.906Z,13.32
2023-05-19T06:35:15.199Z,13.37
2023-05-19T06:37:45.646Z,13.36
2023-05-19T06:40:13.364Z,13.34
2023-05-19T06:42:42.267Z,13.38
2023-05-19T06:45:28.970Z,13.37
2023-05-19T06:47:58.505Z,13.38
2023-05-19T06:50:25.841Z,13.42
2023-05-19T06:52:53.037Z,13.42
2023-05-19T06:55:20.337Z,13.44
2023-05-19T06:57:49.345Z,13.48
2023-05-19T07:00:20.475Z,13.42
2023-05-19T07:02:49.636Z,13.40
2023-05-19T07:05:16.816Z,13.36
2023-05-19T07:07:48.572Z,13.35
2023-05-19T07:10:21.616Z,13.32
2023-05-19T07:12:48.993Z,13.36
2023-05-19T07:15:18.027Z,13.37
2023-05-19T07:17:45.217Z,13.39
2023-05-19T07:20:12.713Z,13.30
2023-05-19T07:22:42.452Z,13.24
2023-05-19T07:25:09.901Z,13.17
2023-05-19T07:27:37.205Z,13.13
2023-05-19T07:30:04.525Z,13.09
2023-05-19T07:32:34.840Z,13.13
2023-05-19T07:35:01.923Z,13.20
2023-05-19T07:37:32.261Z,13.18
2023-05-19T07:39:59.277Z,13.18
2023-05-19T07:42:26.373Z,13.20
2023-05-19T07:44:53.359Z,13.24
2023-05-19T07:47:20.515Z,13.26
2023-05-19T07:49:49.661Z,13.27
2023-05-19T07:52:18.405Z,13.28
2023-05-19T07:54:45.925Z,13.31
2023-05-19T07:57:14.534Z,13.34
2023-05-19T07:59:41.714Z,13.34
2023-05-19T08:02:08.823Z,13.38
2023-05-19T08:04:36.055Z,13.39
2023-05-19T08:07:03.541Z,13.41
2023-05-19T08:09:30.744Z,13.46
2023-05-19T08:11:58.206Z,13.45
2023-05-19T08:14:26.254Z,13.44
2023-05-19T08:16:53.424Z,13.42
2023-05-19T08:19:20.863Z,13.38
2023-05-19T08:21:48.486Z,13.31
2023-05-19T08:24:15.766Z,13.31
2023-05-19T08:26:44.127Z,13.32
2023-05-19T08:29:11.284Z,13.26
2023-05-19T08:31:38.386Z,13.28
2023-05-19T08:34:05.500Z,13.31
2023-05-19T08:36:33.969Z,13.31
2023-05-19T08:39:01.138Z,13.29
2023-05-19T08:41:28.181Z,13.26
2023-05-19T08:43:55.417Z,13.26
2023-05-19T08:46:23.046Z,13.35
2023-05-19T08:48:50.195Z,13.45
2023-05-19T08:51:48.471Z,13.53
2023-05-19T08:54:16.086Z,13.53
2023-05-19T08:56:44.637Z,13.50
2023-05-19T08:59:15.312Z,13.46
2023-05-19T09:01:46.413Z,13.45
2023-05-19T09:04:13.659Z,13.39
2023-05-19T09:06:45.344Z,13.37
2023-05-19T09:09:12.676Z,13.35
2023-05-19T09:11:39.782Z,13.33
2023-05-19T09:14:07.068Z,13.37
2023-05-19T09:16:34.540Z,13.32
2023-05-19T09:19:01.743Z,13.27
2023-05-19T09:21:32.729Z,13.30
2023-05-19T09:24:06.594Z,13.33
2023-05-19T09:26:40.760Z,13.37
2023-05-19T09:29:12.056Z,13.40
2023-05-19T09:31:39.343Z,13.46
2023-05-19T09:34:12.600Z,13.51
2023-05-19T09:36:41.516Z,13.55
2023-05-19T09:39:21.709Z,13.60
2023-05-19T09:41:55.392Z,13.69
2023-05-19T09:44:29.440Z,13.79
2023-05-19T09:46:57.057Z,13.88
2023-05-19T09:49:31.484Z,13.93
2023-05-19T09:51:59.925Z,13.94
2023-05-19T09:54:31.266Z,13.90
2023-05-19T09:56:59.214Z,13.95
2023-05-19T09:59:27.262Z,13.97
2023-05-19T10:01:56.924Z,14.03
2023-05-19T10:04:25.577Z,14.10
2023-05-19T10:06:59.665Z,14.14
2023-05-19T10:09:29.373Z,14.24
2023-05-19T10:11:57.383Z,14.26
2023-05-19T10:14:30.932Z,14.28
2023-05-19T10:16:58.996Z,14.22
2023-05-19T10:19:27.945Z,14.23
2023-05-19T10:21:55.185Z,14.26
2023-05-19T10:24:22.400Z,14.29
2023-05-19T10:27:04.172Z,14.33
2023-05-19T10:29:36.908Z,14.32
2023-05-19T10:32:19.951Z,14.24
2023-05-19T10:35:21.355Z,14.16
2023-05-19T10:38:15.373Z,14.07
2023-05-19T10:41:21.669Z,14.02
2023-05-19T10:43:56.483Z,14.06
2023-05-19T10:46:25.587Z,14.12
2023-05-19T10:48:52.720Z,14.14
2023-05-19T10:51:19.899Z,14.12
2023-05-19T10:53:47.233Z,14.17
2023-05-19T10:56:36.236Z,14.25
2023-05-19T10:59:03.674Z,14.33
2023-05-19T11:01:38.396Z,14.37
2023-05-19T11:04:12.565Z,14.44
2023-05-19T11:06:41.439Z,14.56
2023-05-19T11:09:38.016Z,14.66
2023-05-19T11:12:07.332Z,14.71
2023-05-19T11:14:34.930Z,14.67
2023-05-19T11:17:01.994Z,14.65
2023-05-19T11:19:29.655Z,14.66
2023-05-19T11:21:58.659Z,14.71
2023-05-19T11:24:45.095Z,14.79
2023-05-19T11:27:21.289Z,14.83
2023-05-19T11:29:48.642Z,14.93
2023-05-19T11:32:16.285Z,14.97
2023-05-19T11:34:44.565Z,15.06
2023-05-19T11:37:11.767Z,15.13
2023-05-19T11:39:39.709Z,15.15
2023-05-19T11:42:08.668Z,15.15
2023-05-19T11:44:35.814Z,15.17
2023-05-19T11:47:02.931Z,15.17
2023-05-19T11:49:29.974Z,15.21
2023-05-19T11:51:56.970Z,15.26
2023-05-19T11:54:36.740Z,15.28
2023-05-19T11:57:04.042Z,15.29
2023-05-19T11:59:34.847Z,15.28
2023-05-19T12:02:04.250Z,15.35
2023-05-19T12:04:32.056Z,15.37
2023-05-19T12:06:59.529Z,15.34
2023-05-19T12:09:28.156Z,15.33
2023-05-19T12:11:55.375Z,15.36
2023-05-19T12:14:22.534Z,15.40
2023-05-19T12:16:49.911Z,15.47
2023-05-19T12:19:17.115Z,15.58
2023-05-19T12:21:44.249Z,15.61
2023-05-19T12:24:11.424Z,15.69
2023-05-19T12:26:38.459Z,15.75
2023-05-19T12:29:06.961Z,15.86
2023-05-19T12:31:38.041Z,16.00
2023-05-19T12:34:05.336Z,16.18
2023-05-19T12:36:32.566Z,16.36
2023-05-19T12:39:00.207Z,16.51
2023-05-19T12:41:30.163Z,16.62
2023-05-19T12:43:57.359Z,16.80
2023-05-19T12:46:24.683Z,16.95
2023-05-19T12:48:52.011Z,17.13
2023-05-19T12:51:19.629Z,17.29
2023-05-19T12:53:47.522Z,17.44
2023-05-19T12:56:15.282Z,17.58
2023-05-19T12:58:43.068Z,17.62
2023-05-19T13:01:17.632Z,17.52
2023-05-19T13:03:45.948Z,17.41
2023-05-19T13:06:13.286Z,17.35
2023-05-19T13:08:41.325Z,17.27
2023-05-19T13:11:09.103Z,17.18
2023-05-19T13:13:37.847Z,17.22
2023-05-19T13:16:06.400Z,17.24
2023-05-19T13:18:36.769Z,17.31
2023-05-19T13:21:05.028Z,17.39
2023-05-19T13:23:35.020Z,17.43
2023-05-19T13:26:05.559Z,17.44
2023-05-19T13:28:33.053Z,17.42
2023-05-19T13:31:00.678Z,17.41
2023-05-19T13:33:27.939Z,17.36
2023-05-19T13:35:55.179Z,17.32
2023-05-19T13:38:22.417Z,17.25
2023-05-19T13:40:49.521Z,17.15
2023-05-19T13:43:16.890Z,17.08
2023-05-19T13:45:44.755Z,17.03
2023-05-19T13:48:12.340Z,16.97
2023-05-19T13:50:39.900Z,16.90
2023-05-19T13:53:07.225Z,16.88
2023-05-19T13:55:34.709Z,16.83
2023-05-19T13:58:01.946Z,16.79
2023-05-19T14:00:31.053Z,16.75
2023-05-19T14:02:59.175Z,16.70
2023-05-19T14:05:28.540Z,16.64
2023-05-19T14:07:56.014Z,16.58
2023-05-19T14:10:23.121Z,16.51
2023-05-19T14:13:18.335Z,16.53
2023-05-19T14:15:38.354Z,16.56
2023-05-19T14:18:07.167Z,16.56
2023-05-19T14:20:35.158Z,16.53
2023-05-19T14:23:03.312Z,16.54
2023-05-19T14:25:30.698Z,16.55
2023-05-19T14:27:57.839Z,16.57
2023-05-19T14:30:25.103Z,16.56
2023-05-19T14:32:52.296Z,16.54
2023-05-19T14:35:20.105Z,16.53
2023-05-19T14:37:47.218Z,16.50
2023-05-19T14:40:14.378Z,16.47
2023-05-19T14:42:41.701Z,16.44
2023-05-19T14:45:09.678Z,16.40
2023-05-19T14:47:36.800Z,16.36
2023-05-19T14:50:04.167Z,16.30
2023-05-19T14:52:31.364Z,16.27
2023-05-19T14:54:58.538Z,16.18
2023-05-19T14:57:25.875Z,16.16
2023-05-19T14:59:53.021Z,16.15
2023-05-19T15:02:20.550Z,16.13
2023-05-19T15:04:48.066Z,16.10
2023-05-19T15:07:15.351Z,16.08
2023-05-19T15:09:42.456Z,16.07
2023-05-19T15:12:09.681Z,16.09
2023-05-19T15:14:36.977Z,16.05
2023-05-19T15:17:04.387Z,16.04
2023-05-19T15:19:31.722Z,16.02
2023-05-19T15:21:59.050Z,16.00
2023-05-19T15:24:26.512Z,15.96
2023-05-19T15:26:54.547Z,15.97
2023-05-19T15:29:21.811Z,15.96
2023-05-19T15:31:52.243Z,15.91
2023-05-19T15:34:22.560Z,15.90
2023-05-19T15:36:49.776Z,15.82
2023-05-19T15:39:16.947Z,15.77
2023-05-19T15:41:44.087Z,15.70
2023-05-19T15:44:11.317Z,15.62
2023-05-19T15:46:38.600Z,15.55
2023-05-19T15:49:05.884Z,15.51
2023-05-19T15:51:33.101Z,15.44
2023-05-19T15:54:00.237Z,15.39
2023-05-19T15:56:27.409Z,15.34
2023-05-19T15:58:54.536Z,15.31
2023-05-19T16:01:21.927Z,15.27
2023-05-19T16:03:49.270Z,15.22
2023-05-19T16:06:17.879Z,15.18
2023-05-19T16:08:45.223Z,15.15
2023-05-19T16:11:13.033Z,15.10
2023-05-19T16:13:40.333Z,15.07
2023-05-19T16:16:07.735Z,15.03
2023-05-19T16:18:35.028Z,15.02
2023-05-19T16:21:02.229Z,14.99
2023-05-19T16:23:29.324Z,14.95
2023-05-19T16:25:57.689Z,14.93
2023-05-19T16:28:25.176Z,14.91
2023-05-19T16:30:52.588Z,14.90
2023-05-19T16:33:19.800Z,14.87
2023-05-19T16:35:47.144Z,14.86
2023-05-19T16:38:14.399Z,14.85
2023-05-19T16:40:41.845Z,14.80
2023-05-19T16:43:09.105Z,14.79
2023-05-19T16:45:36.506Z,14.74
2023-05-19T16:48:03.944Z,14.70
2023-05-19T16:50:31.420Z,14.68
2023-05-19T16:52:58.694Z,14.67
2023-05-19T16:55:26.899Z,14.64
2023-05-19T16:57:54.231Z,14.64
2023-05-19T17:00:21.746Z,14.63
2023-05-19T17:02:49.038Z,14.60
2023-05-19T17:05:16.532Z,14.55
2023-05-19T17:07:43.879Z,14.53
2023-05-19T17:10:11.308Z,14.52
2023-05-19T17:12:38.667Z,14.50
2023-05-19T17:15:06.690Z,14.45
2023-05-19T17:17:33.925Z,14.41
2023-05-19T17:20:01.576Z,14.36
2023-05-19T17:22:30.876Z,14.31
2023-05-19T17:24:58.189Z,14.27
2023-05-19T17:27:25.332Z,14.25
2023-05-19T17:29:52.798Z,14.20
2023-05-19T17:32:26.047Z,14.14
2023-05-19T17:34:53.356Z,14.11
2023-05-19T17:37:23.571Z,14.08
2023-05-19T17:39:51.683Z,14.06
2023-05-19T17:42:18.963Z,14.01
2023-05-19T17:44:46.195Z,13.98
2023-05-19T17:47:13.496Z,13.98
2023-05-19T17:49:41.631Z,13.92
2023-05-19T17:52:09.401Z,13.88
2023-05-19T17:54:37.036Z,13.80
2023-05-19T17:57:04.577Z,13.73
2023-05-19T17:59:32.042Z,13.66
2023-05-19T18:01:59.593Z,13.61
2023-05-19T18:04:27.092Z,13.53
2023-05-19T18:06:54.333Z,13.48
2023-05-19T18:09:21.536Z,13.45
2023-05-19T18:11:48.699Z,13.41
2023-05-19T18:14:16.034Z,13.35
2023-05-19T18:16:43.395Z,13.29
2023-05-19T18:19:10.914Z,13.20
2023-05-19T18:21:38.900Z,13.16
2023-05-19T18:24:07.188Z,13.10
2023-05-19T18:26:34.589Z,13.06
2023-05-19T18:29:04.968Z,13.02
2023-05-19T18:31:32.648Z,12.96
2023-05-19T18:33:59.788Z,12.91
2023-05-19T18:36:27.024Z,12.82
2023-05-19T18:38:55.293Z,12.77
2023-05-19T18:41:22.496Z,12.74
2023-05-19T18:43:49.798Z,12.74
2023-05-19T18:46:20.822Z,12.70
2023-05-19T18:48:50.527Z,12.65
2023-05-19T18:51:18.890Z,12.61
2023-05-19T18:53:48.740Z,12.47
2023-05-19T18:56:23.531Z,12.35
2023-05-19T18:58:50.921Z,12.19
2023-05-19T19:01:18.434Z,12.08
2023-05-19T19:03:49.739Z,12.01
2023-05-19T19:06:20.956Z,11.98
2023-05-19T19:08:48.685Z,11.94
2023-05-19T19:11:18.993Z,11.92
2023-05-19T19:13:46.496Z,11.88
2023-05-19T19:16:13.820Z,11.85
2023-05-19T19:18:41.067Z,11.79
2023-05-19T19:21:08.681Z,11.73
2023-05-19T19:23:37.915Z,11.72
2023-05-19T19:26:05.303Z,11.67
2023-05-19T19:28:32.643Z,11.63
2023-05-19T19:30:59.868Z,11.58
2023-05-19T19:33:27.173Z,11.55
2023-05-19T19:35:54.400Z,11.51
2023-05-19T19:38:21.630Z,11.51
2023-05-19T19:40:51.587Z,11.48
2023-05-19T19:43:19.141Z,11.43
2023-05-19T19:45:46.273Z,11.34
2023-05-19T19:48:13.514Z,11.27
2023-05-19T19:50:40.850Z,11.20
2023-05-19T19:53:09.038Z,11.10
2023-05-19T19:55:36.819Z,11.00
2023-05-19T19:58:04.061Z,10.95
2023-05-19T20:00:31.349Z,10.93
2023-05-19T20:05:29.018Z,10.91
2023-05-19T20:07:56.273Z,10.89
2023-05-19T20:10:23.441Z,10.89
2023-05-19T20:12:50.730Z,10.88
2023-05-19T20:15:18.065Z,10.83
2023-05-19T20:17:45.953Z,10.84
2023-05-19T20:20:13.368Z,10.82
2023-05-19T20:22:40.588Z,10.83
2023-05-19T20:25:08.052Z,10.84
2023-05-19T20:27:35.227Z,10.87
2023-05-19T20:30:02.388Z,10.85
2023-05-19T20:32:34.774Z,10.83
2023-05-19T20:35:01.901Z,10.83
2023-05-19T20:37:32.147Z,10.82
2023-05-19T20:39:59.262Z,10.74
2023-05-19T20:42:26.644Z,10.71
2023-05-19T20:44:53.925Z,10.73
2023-05-19T20:47:21.280Z,10.71
2023-05-19T20:49:48.589Z,10.71
2023-05-19T20:52:16.389Z,10.72
2023-05-19T20:54:43.710Z,10.69
2023-05-19T20:57:11.659Z,10.67
2023-05-19T20:59:39.365Z,10.67
2023-05-19T21:02:07.698Z,10.67
2023-05-19T21:04:35.163Z,10.67
2023-05-19T21:07:02.493Z,10.69
2023-05-19T21:09:29.958Z,10.72
2023-05-19T21:11:57.236Z,10.74
2023-05-19T21:14:25.531Z,10.78
2023-05-19T21:16:54.443Z,10.78
2023-05-19T21:19:23.162Z,10.74
2023-05-19T21:21:50.493Z,10.72
2023-05-19T21:24:17.713Z,10.70
2023-05-19T21:26:45.002Z,10.69
2023-05-19T21:29:12.154Z,10.64
2023-05-19T21:31:39.408Z,10.60
2023-05-19T21:34:09.624Z,10.57
2023-05-19T21:36:36.889Z,10.52
2023-05-19T21:39:04.701Z,10.47
2023-05-19T21:41:32.577Z,10.44
2023-05-19T21:44:00.086Z,10.41
2023-05-19T21:46:29.227Z,10.35
2023-05-19T21:48:56.877Z,10.26
2023-05-19T21:51:24.155Z,10.20
2023-05-19T21:53:51.351Z,10.20
2023-05-19T21:56:18.638Z,10.18
2023-05-19T21:58:46.252Z,10.16
2023-05-19T22:01:13.418Z,10.14
2023-05-19T22:03:41.014Z,10.13
2023-05-19T22:06:08.438Z,10.13
2023-05-19T22:08:35.908Z,10.13
2023-05-19T22:11:03.286Z,10.14
2023-05-19T22:13:30.773Z,10.13
2023-05-19T22:15:58.386Z,10.10
2023-05-19T22:18:25.507Z,10.11
2023-05-19T22:20:52.503Z,10.10
2023-05-19T22:23:19.582Z,10.10
2023-05-19T22:25:47.021Z,10.10
2023-05-19T22:28:14.131Z,10.10
2023-05-19T22:30:42.383Z,10.07
2023-05-19T22:33:11.398Z,10.01
2023-05-19T22:35:38.599Z,9.97
2023-05-19T22:38:06.502Z,9.95
2023-05-19T22:40:35.726Z,9.94
2023-05-19T22:43:03.037Z,9.92
2023-05-19T22:45:30.143Z,9.90
2023-05-19T22:47:57.232Z,9.89
2023-05-19T22:50:24.302Z,9.84
2023-05-19T22:52:51.548Z,9.83
2023-05-19T22:55:18.697Z,9.79
2023-05-19T22:57:45.804Z,9.71
2023-05-19T23:00:18.834Z,9.60
2023-05-19T23:02:45.996Z,9.51
2023-05-19T23:05:13.404Z,9.43
2023-05-19T23:07:40.759Z,9.34
2023-05-19T23:10:08.579Z,9.22
2023-05-19T23:12:35.801Z,9.09
2023-05-19T23:15:03.436Z,9.02
2023-05-19T23:17:34.603Z,8.87
2023-05-19T23:20:01.700Z,8.82
2023-05-19T23:22:31.553Z,8.75
2023-05-19T23:24:58.596Z,8.73
2023-05-19T23:27:26.126Z,8.70
2023-05-19T23:29:53.692Z,8.67
2023-05-19T23:32:20.805Z,8.64
2023-05-19T23:34:48.630Z,8.56
2023-05-19T23:37:16.003Z,8.53
2023-05-19T23:39:43.326Z,8.52
2023-05-19T23:42:10.459Z,8.49
2023-05-19T23:44:37.964Z,8.45
2023-05-19T23:47:05.174Z,8.41
2023-05-19T23:49:32.225Z,8.37
2023-05-19T23:51:59.263Z,8.36
2023-05-19T23:54:26.894Z,8.41
2023-05-19T23:56:55.908Z,8.37
2023-05-19T23:59:23.003Z,8.38
